Time;durP1;ratioP1;P1;durP2;ratioP2;P2;SDS_P1;SDS_P2;PMS_P1;PMS_P2;Temp;Humidity;BMP_temperature;BMP_pressure;BME280_temperature;BME280_humidity;BME280_pressure;Samples;Min_cycle;Max_cycle;Signal;HPM_P1;HPM_P2
2021/12/05 00:21:40;;;;;;;;;4.25;2.25;;;;;;;;5063310;28;62020;-79
2021/12/05 00:24:11;;;;;;;;;0.25;0.25;;;;;;;;5062226;28;61776;-79
2021/12/05 00:26:38;;;;;;;;;0.00;0.00;;;;;;;;5063453;28;61730;-79
2021/12/05 00:29:13;;;;;;;;;0.50;0.00;;;;;;;;5061574;28;62146;-80
2021/12/05 00:34:38;;;;;;;;;2.00;1.00;;;;;;;;5062974;28;61906;-79
2021/12/05 00:40:36;;;;;;;;;0.75;0.75;;;;;;;;4999820;28;62115;-80
2021/12/05 00:43:22;;;;;;;;;0.00;0.00;;;;;;;;5000525;28;61966;-80
2021/12/05 01:02:32;;;;;;;;;1.00;1.00;;;;;;;;4979191;28;62327;-79
2021/12/05 01:15:04;;;;;;;;;0.00;0.00;;;;;;;;4980526;28;61783;-79
2021/12/05 01:17:42;;;;;;;;;0.00;0.00;;;;;;;;4994416;28;61814;-80
2021/12/05 01:20:11;;;;;;;;;0.00;0.00;;;;;;;;5000516;28;61995;-80
2021/12/05 01:22:42;;;;;;;;;0.25;0.25;;;;;;;;4999118;28;64236;-80
2021/12/05 01:25:24;;;;;;;;;0.00;0.00;;;;;;;;5000243;28;61850;-80
2021/12/05 01:28:11;;;;;;;;;0.00;0.00;;;;;;;;4999537;28;62459;-80
2021/12/05 01:30:47;;;;;;;;;0.00;0.00;;;;;;;;4999274;28;62121;-80
2021/12/05 01:36:15;;;;;;;;;2.75;0.00;;;;;;;;5062133;28;61928;-80
2021/12/05 01:39:03;;;;;;;;;0.50;0.00;;;;;;;;5060377;28;61977;-80
2021/12/05 01:55:32;;;;;;;;;0.00;0.00;;;;;;;;4994095;28;62061;-80
2021/12/05 01:58:12;;;;;;;;;1.00;1.00;;;;;;;;4999074;28;61989;-79
2021/12/05 02:12:14;;;;;;;;;0.00;0.00;;;;;;;;4999299;28;61934;-80
2021/12/05 02:36:19;;;;;;;;;0.50;0.00;;;;;;;;5061092;28;61629;-80
2021/12/05 02:41:09;;;;;;;;;0.50;0.00;;;;;;;;5060621;28;61987;-80
2021/12/05 02:43:38;;;;;;;;;0.00;0.00;;;;;;;;5059079;28;62086;-80
2021/12/05 02:46:05;;;;;;;;;0.50;0.00;;;;;;;;5058724;28;61856;-80
2021/12/05 02:48:34;;;;;;;;;0.00;0.00;;;;;;;;5058362;28;63453;-80
2021/12/05 02:51:00;;;;;;;;;1.50;0.00;;;;;;;;5059334;28;61835;-79
2021/12/05 02:53:46;;;;;;;;;0.00;0.00;;;;;;;;5060855;28;61766;-80
2021/12/05 02:56:12;;;;;;;;;0.75;0.00;;;;;;;;5059586;28;61674;-80
2021/12/05 02:58:47;;;;;;;;;1.00;0.00;;;;;;;;5058250;28;63333;-80
2021/12/05 03:01:24;;;;;;;;;0.00;0.00;;;;;;;;5060293;28;61957;-80
2021/12/05 03:03:52;;;;;;;;;1.00;0.00;;;;;;;;5060650;28;61882;-79
2021/12/05 03:06:22;;;;;;;;;0.00;0.00;;;;;;;;5059622;28;62117;-80
2021/12/05 03:08:49;;;;;;;;;0.00;0.00;;;;;;;;5058502;28;63618;-80
2021/12/05 03:11:15;;;;;;;;;0.25;0.00;;;;;;;;5060615;28;62187;-80
2021/12/05 03:13:41;;;;;;;;;1.00;1.00;;;;;;;;5058855;28;61743;-79
2021/12/05 03:16:07;;;;;;;;;0.00;0.00;;;;;;;;5060243;28;61902;-80
2021/12/05 03:18:32;;;;;;;;;0.00;0.00;;;;;;;;5058007;28;64442;-79
2021/12/05 03:20:58;;;;;;;;;0.25;0.25;;;;;;;;5059201;28;61884;-80
2021/12/05 03:23:24;;;;;;;;;0.00;0.00;;;;;;;;5058847;28;62041;-80
2021/12/05 03:25:49;;;;;;;;;0.00;0.00;;;;;;;;5060555;28;61750;-80
2021/12/05 03:28:15;;;;;;;;;2.00;0.00;;;;;;;;5059367;28;61841;-80
2021/12/05 03:30:40;;;;;;;;;0.00;0.00;;;;;;;;5058734;28;61729;-80
2021/12/05 03:33:05;;;;;;;;;0.00;0.00;;;;;;;;5058423;28;62345;-80
2021/12/05 03:35:31;;;;;;;;;0.00;0.00;;;;;;;;5060395;28;61774;-80
2021/12/05 03:37:58;;;;;;;;;1.00;0.00;;;;;;;;5063584;28;61788;-80
2021/12/05 03:40:25;;;;;;;;;0.00;0.00;;;;;;;;5075871;28;61734;-79
2021/12/05 03:42:51;;;;;;;;;1.00;0.00;;;;;;;;5074675;28;62068;-80
2021/12/05 03:45:19;;;;;;;;;1.25;0.00;;;;;;;;5058018;28;62097;-79
2021/12/05 03:47:45;;;;;;;;;1.00;0.00;;;;;;;;5058816;28;62762;-79
2021/12/05 03:50:11;;;;;;;;;0.00;0.00;;;;;;;;5060933;28;62121;-80
2021/12/05 03:52:37;;;;;;;;;0.00;0.00;;;;;;;;5079094;28;61957;-80
2021/12/05 03:55:03;;;;;;;;;0.00;0.00;;;;;;;;5079323;28;61919;-80
2021/12/05 03:57:28;;;;;;;;;0.00;0.00;;;;;;;;5078257;28;63568;-80
2021/12/05 03:59:53;;;;;;;;;0.00;0.00;;;;;;;;5063451;28;61943;-80
2021/12/05 04:02:19;;;;;;;;;0.00;0.00;;;;;;;;5078499;28;61834;-80
2021/12/05 04:04:44;;;;;;;;;0.00;0.00;;;;;;;;5063901;28;61839;-80
2021/12/05 04:07:12;;;;;;;;;0.00;0.00;;;;;;;;5062349;28;61751;-80
2021/12/05 04:09:38;;;;;;;;;0.00;0.00;;;;;;;;5063539;28;61993;-80
2021/12/05 04:12:03;;;;;;;;;0.50;0.00;;;;;;;;5062935;28;61966;-80
2021/12/05 04:14:34;;;;;;;;;0.00;0.00;;;;;;;;5063604;28;61756;-80
2021/12/05 04:17:00;;;;;;;;;0.00;0.00;;;;;;;;5062224;28;63017;-79
2021/12/05 04:19:25;;;;;;;;;0.00;0.00;;;;;;;;5062524;28;61794;-80
2021/12/05 04:21:51;;;;;;;;;2.00;0.00;;;;;;;;5078842;28;61854;-80
2021/12/05 04:24:16;;;;;;;;;1.00;0.00;;;;;;;;5063058;28;62104;-79
2021/12/05 04:26:42;;;;;;;;;0.00;0.00;;;;;;;;5062116;28;61887;-80
2021/12/05 04:29:08;;;;;;;;;0.00;0.00;;;;;;;;5078551;28;61803;-79
2021/12/05 04:31:34;;;;;;;;;0.00;0.00;;;;;;;;5062773;28;61730;-80
2021/12/05 04:34:00;;;;;;;;;0.00;0.00;;;;;;;;5062994;28;62222;-79
2021/12/05 04:36:25;;;;;;;;;0.00;0.00;;;;;;;;5061997;28;62774;-80
2021/12/05 04:38:50;;;;;;;;;0.00;0.00;;;;;;;;5062252;28;61899;-80
2021/12/05 04:41:16;;;;;;;;;3.25;0.00;;;;;;;;5061409;28;61970;-80
2021/12/05 04:43:41;;;;;;;;;0.75;0.00;;;;;;;;5061221;28;61712;-80
2021/12/05 04:46:14;;;;;;;;;0.00;0.00;;;;;;;;5061982;28;61832;-80
2021/12/05 04:48:40;;;;;;;;;0.75;0.00;;;;;;;;5062511;28;61750;-79
2021/12/05 04:51:06;;;;;;;;;0.00;0.00;;;;;;;;5062919;28;61767;-80
2021/12/05 04:53:33;;;;;;;;;0.00;0.00;;;;;;;;5062049;28;61687;-80
2021/12/05 04:55:59;;;;;;;;;0.00;0.00;;;;;;;;5060585;28;62298;-79
2021/12/05 04:58:25;;;;;;;;;0.00;0.00;;;;;;;;5062427;28;62024;-79
2021/12/05 05:00:53;;;;;;;;;1.00;0.00;;;;;;;;5060944;28;61912;-79
2021/12/05 05:03:19;;;;;;;;;0.00;0.00;;;;;;;;5061895;28;61791;-80
2021/12/05 05:05:52;;;;;;;;;0.00;0.00;;;;;;;;5061702;28;63203;-80
2021/12/05 05:08:18;;;;;;;;;0.00;0.00;;;;;;;;5061984;28;61923;-80
2021/12/05 05:10:44;;;;;;;;;0.00;0.00;;;;;;;;5062736;28;61868;-80
2021/12/05 05:13:09;;;;;;;;;0.75;0.00;;;;;;;;5062260;28;61878;-80
2021/12/05 05:15:34;;;;;;;;;0.50;0.00;;;;;;;;5059993;28;63662;-80
2021/12/05 05:18:01;;;;;;;;;0.00;0.00;;;;;;;;5059866;28;61892;-80
2021/12/05 05:51:50;;;;;;;;;0.00;0.00;;;;;;;;5061354;28;61713;-80
2021/12/05 05:54:16;;;;;;;;;0.00;0.00;;;;;;;;5061971;28;62005;-79
2021/12/05 06:04:33;;;;;;;;;0.00;0.00;;;;;;;;4982792;28;62016;-88
2021/12/05 06:06:58;;;;;;;;;0.00;0.00;;;;;;;;4964392;28;63782;-87
2021/12/05 06:09:23;;;;;;;;;1.00;0.00;;;;;;;;4964959;28;61933;-88
2021/12/05 06:11:49;;;;;;;;;0.00;0.00;;;;;;;;4982676;28;61878;-88
2021/12/05 06:14:14;;;;;;;;;1.75;0.00;;;;;;;;4964880;28;61888;-88
2021/12/05 06:16:39;;;;;;;;;0.50;0.00;;;;;;;;4964356;28;63771;-87
2021/12/05 06:19:04;;;;;;;;;0.00;0.00;;;;;;;;4982612;28;61946;-87
2021/12/05 06:21:30;;;;;;;;;0.00;0.00;;;;;;;;4982484;28;61926;-88
2021/12/05 06:23:55;;;;;;;;;1.00;0.00;;;;;;;;4982744;28;61949;-88
2021/12/05 06:26:22;;;;;;;;;1.75;0.00;;;;;;;;4964231;28;64922;-86
2021/12/05 06:28:57;;;;;;;;;0.00;0.00;;;;;;;;4964564;28;61977;-86
2021/12/05 06:37:14;;;;;;;;;0.00;0.00;;;;;;;;4979336;28;62749;-87
2021/12/05 06:39:49;;;;;;;;;1.50;0.00;;;;;;;;4979761;28;62040;-88
2021/12/05 06:47:43;;;;;;;;;0.00;0.00;;;;;;;;4978948;28;61891;-88
2021/12/05 06:50:08;;;;;;;;;0.00;0.00;;;;;;;;4963221;28;61852;-87
2021/12/05 06:52:34;;;;;;;;;2.00;1.00;;;;;;;;4963116;28;62110;-87
2021/12/05 06:54:59;;;;;;;;;1.25;0.00;;;;;;;;4963156;28;62127;-86
2021/12/05 06:57:24;;;;;;;;;0.50;0.00;;;;;;;;4962277;28;63659;-87
2021/12/05 06:59:50;;;;;;;;;0.00;0.00;;;;;;;;4979044;28;62076;-86
2021/12/05 07:02:17;;;;;;;;;0.00;0.00;;;;;;;;4947067;28;61974;-87
2021/12/05 07:07:29;;;;;;;;;3.00;1.00;;;;;;;;4968329;28;62015;-87
2021/12/05 07:09:54;;;;;;;;;0.00;0.00;;;;;;;;4951111;28;62085;-87
2021/12/05 07:22:46;;;;;;;;;0.00;0.00;;;;;;;;4993961;28;61976;-89
2021/12/05 07:25:24;;;;;;;;;0.75;0.00;;;;;;;;4975074;28;62030;-89
2021/12/05 07:41:54;;;;;;;;;1.00;0.00;;;;;;;;5004760;28;62006;-87
2021/12/05 07:44:15;;;;;;;;;0.50;0.50;;;;;;;;5004323;28;61723;-89
2021/12/05 07:46:40;;;;;;;;;0.00;0.00;;;;;;;;4986951;28;61792;-89
2021/12/05 07:49:09;;;;;;;;;1.00;1.00;;;;;;;;5004026;28;61892;-86
2021/12/05 07:51:39;;;;;;;;;4.00;0.00;;;;;;;;4986517;28;61914;-86
2021/12/05 07:54:14;;;;;;;;;0.00;0.00;;;;;;;;4986726;28;62259;-86
2021/12/05 07:56:46;;;;;;;;;0.75;0.00;;;;;;;;5004466;28;61697;-86
2021/12/05 08:15:24;;;;;;;;;1.00;1.00;;;;;;;;4990424;28;61804;-84
2021/12/05 08:17:53;;;;;;;;;0.00;0.00;;;;;;;;4985252;28;61768;-85
2021/12/05 08:20:23;;;;;;;;;7.00;0.00;;;;;;;;4984494;28;61970;-84
2021/12/05 08:22:49;;;;;;;;;1.75;1.00;;;;;;;;4984905;28;61797;-82
2021/12/05 08:25:14;;;;;;;;;4.75;1.00;;;;;;;;4967174;28;61789;-80
2021/12/05 08:27:44;;;;;;;;;5.50;1.00;;;;;;;;4967131;28;61983;-77
2021/12/05 08:30:15;;;;;;;;;0.00;0.00;;;;;;;;4984442;28;61910;-84
2021/12/05 08:35:37;;;;;;;;;1.50;0.50;;;;;;;;4995032;28;61994;-87
2021/12/05 09:51:22;;;;;;;;;6.75;2.50;;;;;;;;4980299;28;61827;-87
2021/12/05 10:07:16;;;;;;;;;3.00;3.00;;;;;;;;4965995;28;62337;-79
2021/12/05 10:34:38;;;;;;;;;3.00;2.75;;;;;;;;4921683;28;61907;-85
2021/12/05 10:37:06;;;;;;;;;6.25;3.00;;;;;;;;4921685;28;62123;-86
2021/12/05 10:39:32;;;;;;;;;1.00;1.00;;;;;;;;4905429;28;64811;-85
2021/12/05 10:42:13;;;;;;;;;2.00;2.00;;;;;;;;4921924;28;61959;-85
2021/12/05 10:44:42;;;;;;;;;3.00;3.00;;;;;;;;4920976;28;61985;-83
2021/12/05 10:47:07;;;;;;;;;2.00;2.00;;;;;;;;4922946;28;62100;-84
2021/12/05 10:49:32;;;;;;;;;2.00;1.00;;;;;;;;4920951;28;63158;-83
2021/12/05 10:51:58;;;;;;;;;4.00;2.00;;;;;;;;4905343;28;62100;-83
2021/12/05 10:54:25;;;;;;;;;2.75;1.00;;;;;;;;4905700;28;62072;-83
2021/12/05 10:56:52;;;;;;;;;0.00;0.00;;;;;;;;4959414;28;62291;-80
2021/12/05 10:59:24;;;;;;;;;2.50;1.50;;;;;;;;4970095;28;64087;-80
2021/12/05 11:01:55;;;;;;;;;1.00;1.00;;;;;;;;4981096;28;62044;-80
2021/12/05 11:04:20;;;;;;;;;1.00;1.00;;;;;;;;4985004;28;61983;-85
2021/12/05 11:06:50;;;;;;;;;2.00;1.00;;;;;;;;4973768;28;61930;-84
2021/12/05 11:09:17;;;;;;;;;2.00;2.00;;;;;;;;4964891;28;61902;-85
2021/12/05 11:11:44;;;;;;;;;3.50;3.00;;;;;;;;4972220;28;61936;-84
2021/12/05 11:14:11;;;;;;;;;6.75;2.00;;;;;;;;4979721;28;62122;-85
2021/12/05 11:16:37;;;;;;;;;2.00;1.00;;;;;;;;4983623;28;61953;-81
2021/12/05 11:19:22;;;;;;;;;5.00;2.25;;;;;;;;4983354;28;63679;-81
2021/12/05 11:22:16;;;;;;;;;3.00;1.00;;;;;;;;4981236;28;61869;-85
2021/12/05 11:24:47;;;;;;;;;3.00;2.00;;;;;;;;4970900;28;62275;-83
2021/12/05 11:27:29;;;;;;;;;6.00;4.50;;;;;;;;4976834;28;61805;-82
2021/12/05 11:30:09;;;;;;;;;5.25;3.50;;;;;;;;4971399;28;65056;-82
2021/12/05 11:32:44;;;;;;;;;3.00;3.00;;;;;;;;4966155;28;62022;-81
2021/12/05 11:35:28;;;;;;;;;2.25;1.25;;;;;;;;4966431;28;61858;-81
2021/12/05 11:38:12;;;;;;;;;10.00;10.00;;;;;;;;4971330;28;62913;-80
2021/12/05 11:40:58;;;;;;;;;11.75;9.00;;;;;;;;4975704;28;61807;-81
2021/12/05 11:43:53;;;;;;;;;;;;;;;;;;;;;
2021/12/05 11:46:38;;;;;;;;;18.00;16.25;;;;;;;;4972579;28;72078;-81
2021/12/05 11:49:20;;;;;;;;;;;;;;;;;;;;;
2021/12/05 11:51:57;;;;;;;;;12.50;9.00;;;;;;;;4970986;28;90242;-82
2021/12/05 11:54:25;;;;;;;;;9.00;6.75;;;;;;;;4979606;28;61956;-82
2021/12/05 11:56:56;;;;;;;;;3.25;3.25;;;;;;;;4979679;28;62459;-81
2021/12/05 12:13:28;;;;;;;;;;;;;;;;;;;;;
2021/12/05 12:19:25;;;;;;;;;12.50;5.00;;;;;;;;4838617;29;62202;-81
2021/12/05 12:22:40;;;;;;;;;8.00;7.00;;;;;;;;4828911;29;62150;-86
2021/12/05 12:55:28;;;;;;;;;;;;;;;;;;;;;
2021/12/05 12:57:53;;;;;;;;;10.50;8.00;;;;;;;;4886949;29;72905;-80
2021/12/05 13:00:22;;;;;;;;;11.75;11.75;;;;;;;;4869050;29;61853;-83
2021/12/05 13:11:06;;;;;;;;;10.75;4.50;;;;;;;;5001843;28;62002;-85
2021/12/05 13:13:32;;;;;;;;;6.25;6.00;;;;;;;;4980306;28;63737;-84
2021/12/05 13:16:07;;;;;;;;;6.75;4.25;;;;;;;;4978073;28;61913;-84
2021/12/05 13:18:35;;;;;;;;;6.00;5.50;;;;;;;;4983019;28;61891;-86
2021/12/05 13:21:11;;;;;;;;;6.25;6.00;;;;;;;;4982288;28;61946;-84
2021/12/05 13:23:37;;;;;;;;;6.00;6.00;;;;;;;;4979821;28;63670;-81
2021/12/05 13:26:15;;;;;;;;;8.00;6.00;;;;;;;;4984179;28;62367;-80
2021/12/05 13:28:45;;;;;;;;;3.00;3.00;;;;;;;;4982466;28;62026;-79
2021/12/05 13:31:28;;;;;;;;;1.25;1.00;;;;;;;;4999791;28;62085;-80
2021/12/05 13:34:12;;;;;;;;;4.00;3.50;;;;;;;;4991508;28;65403;-78
2021/12/05 13:36:38;;;;;;;;;13.00;10.00;;;;;;;;4999841;28;61926;-78
2021/12/05 13:39:23;;;;;;;;;3.00;3.00;;;;;;;;4983087;28;61952;-79
2021/12/05 13:42:07;;;;;;;;;8.50;8.50;;;;;;;;4997461;28;61842;-79
2021/12/05 13:44:51;;;;;;;;;4.50;4.50;;;;;;;;4998085;28;62258;-78
2021/12/05 13:47:18;;;;;;;;;10.50;8.50;;;;;;;;4999775;28;61889;-78
2021/12/05 13:49:45;;;;;;;;;6.25;6.00;;;;;;;;4983945;28;61868;-78
2021/12/05 13:52:31;;;;;;;;;7.75;6.25;;;;;;;;5002749;28;61991;-78
2021/12/05 13:55:15;;;;;;;;;6.00;5.00;;;;;;;;4979729;28;64712;-79
2021/12/05 13:58:00;;;;;;;;;9.00;6.00;;;;;;;;4982956;28;61957;-81
2021/12/05 14:00:39;;;;;;;;;6.00;6.00;;;;;;;;4998765;28;61720;-81
2021/12/05 14:03:04;;;;;;;;;5.00;5.00;;;;;;;;4999872;28;61819;-78
2021/12/05 14:05:29;;;;;;;;;3.25;2.75;;;;;;;;4982450;28;63335;-78
2021/12/05 14:07:55;;;;;;;;;7.00;6.75;;;;;;;;5001576;28;62138;-77
2021/12/05 14:10:20;;;;;;;;;6.25;6.00;;;;;;;;5000777;28;62122;-79
2021/12/05 14:12:45;;;;;;;;;9.25;5.50;;;;;;;;4983225;28;62210;-79
2021/12/05 14:15:12;;;;;;;;;10.00;7.75;;;;;;;;4982733;28;63855;-78
2021/12/05 14:17:40;;;;;;;;;3.00;3.00;;;;;;;;4983918;28;61971;-82
2021/12/05 14:20:08;;;;;;;;;13.75;10.00;;;;;;;;5001663;28;61835;-76
2021/12/05 14:22:34;;;;;;;;;8.50;8.50;;;;;;;;4983203;28;61811;-77
2021/12/05 14:25:01;;;;;;;;;16.00;10.50;;;;;;;;5000172;28;62016;-78
2021/12/05 14:27:28;;;;;;;;;5.75;5.75;;;;;;;;4982573;28;61812;-77
2021/12/05 14:29:54;;;;;;;;;5.75;5.75;;;;;;;;5000973;28;62092;-83
2021/12/05 14:32:28;;;;;;;;;4.00;4.00;;;;;;;;5001074;28;61814;-83
2021/12/05 14:35:00;;;;;;;;;5.25;3.25;;;;;;;;4982211;28;64102;-82
2021/12/05 14:37:27;;;;;;;;;5.50;5.50;;;;;;;;4982861;28;61949;-80
2021/12/05 14:39:55;;;;;;;;;5.75;3.50;;;;;;;;4982482;28;61919;-77
2021/12/05 14:42:22;;;;;;;;;5.75;3.00;;;;;;;;4996257;28;61700;-78
2021/12/05 14:44:49;;;;;;;;;2.75;2.75;;;;;;;;4974399;28;64714;-77
2021/12/05 14:47:19;;;;;;;;;4.00;2.00;;;;;;;;4997567;28;62046;-77
2021/12/05 14:49:46;;;;;;;;;5.00;3.00;;;;;;;;5000533;28;61955;-78
2021/12/05 14:52:13;;;;;;;;;2.00;2.00;;;;;;;;4983481;28;61831;-78
2021/12/05 14:54:40;;;;;;;;;3.00;2.00;;;;;;;;4999705;28;63769;-78
2021/12/05 14:57:07;;;;;;;;;6.75;5.00;;;;;;;;4983172;28;61864;-80
2021/12/05 14:59:32;;;;;;;;;5.00;3.00;;;;;;;;4998885;28;61879;-80
2021/12/05 15:01:58;;;;;;;;;5.75;3.00;;;;;;;;5000914;28;62025;-80
2021/12/05 15:04:26;;;;;;;;;5.00;2.25;;;;;;;;4982436;28;64615;-80
2021/12/05 15:06:52;;;;;;;;;9.00;5.75;;;;;;;;4983239;28;61990;-81
2021/12/05 15:09:17;;;;;;;;;6.00;3.00;;;;;;;;4983461;28;61837;-82
2021/12/05 15:11:50;;;;;;;;;2.00;2.00;;;;;;;;5000757;28;61777;-85
2021/12/05 15:14:16;;;;;;;;;4.50;2.50;;;;;;;;4998105;28;61843;-82
2021/12/05 15:16:57;;;;;;;;;6.50;3.50;;;;;;;;5000559;28;61898;-82
2021/12/05 15:19:22;;;;;;;;;5.75;4.50;;;;;;;;4983117;28;61899;-83
2021/12/05 15:21:48;;;;;;;;;5.00;2.25;;;;;;;;4982448;28;62262;-82
2021/12/05 15:24:14;;;;;;;;;3.00;3.00;;;;;;;;4998093;28;61890;-81
2021/12/05 15:26:40;;;;;;;;;3.00;3.00;;;;;;;;4982899;28;62815;-83
2021/12/05 15:29:05;;;;;;;;;9.00;7.50;;;;;;;;4982868;28;62039;-82
2021/12/05 15:31:35;;;;;;;;;3.00;3.00;;;;;;;;4999462;28;62105;-82
2021/12/05 15:34:00;;;;;;;;;6.00;5.75;;;;;;;;4978944;28;64177;-82
2021/12/05 15:36:34;;;;;;;;;13.75;11.50;;;;;;;;4981614;28;62008;-82
2021/12/05 15:39:10;;;;;;;;;13.50;11.25;;;;;;;;4997826;28;61848;-83
2021/12/05 15:41:35;;;;;;;;;14.50;11.00;;;;;;;;4973132;28;62035;-82
2021/12/05 15:44:00;;;;;;;;;14.75;14.25;;;;;;;;4989020;28;62087;-82
2021/12/05 15:46:27;;;;;;;;;13.75;11.75;;;;;;;;4976740;28;62161;-82
2021/12/05 15:48:54;;;;;;;;;9.25;6.50;;;;;;;;4998410;28;61736;-83
2021/12/05 15:51:21;;;;;;;;;10.00;8.25;;;;;;;;4993294;28;61991;-84
2021/12/05 15:53:47;;;;;;;;;5.25;5.25;;;;;;;;4980327;28;64104;-83
2021/12/05 15:56:14;;;;;;;;;39.00;35.75;;;;;;;;4980890;28;61833;-83
2021/12/05 15:58:45;;;;;;;;;15.50;12.00;;;;;;;;4978988;28;61776;-84
2021/12/05 16:01:13;;;;;;;;;18.25;18.25;;;;;;;;4979867;28;61956;-82
2021/12/05 16:03:38;;;;;;;;;5.50;5.25;;;;;;;;4974561;28;63772;-84
2021/12/05 16:06:04;;;;;;;;;11.75;9.75;;;;;;;;4995333;28;62134;-85
2021/12/05 16:08:31;;;;;;;;;12.00;10.25;;;;;;;;4976509;28;62051;-85
2021/12/05 16:10:59;;;;;;;;;11.50;10.00;;;;;;;;4993771;28;61786;-84
2021/12/05 16:13:28;;;;;;;;;13.50;10.75;;;;;;;;4974539;28;64836;-83
2021/12/05 16:15:55;;;;;;;;;7.00;7.00;;;;;;;;4995603;28;61850;-82
2021/12/05 16:18:29;;;;;;;;;9.25;7.00;;;;;;;;4982273;28;61915;-83
2021/12/05 16:21:01;;;;;;;;;7.75;6.00;;;;;;;;5003655;28;62120;-84
2021/12/05 16:23:28;;;;;;;;;6.00;5.00;;;;;;;;4989270;28;62975;-81
2021/12/05 16:26:09;;;;;;;;;12.00;11.00;;;;;;;;5003877;28;61691;-83
2021/12/05 16:28:40;;;;;;;;;12.75;10.00;;;;;;;;4985971;28;61747;-83
2021/12/05 16:31:09;;;;;;;;;10.00;9.00;;;;;;;;4981235;28;62029;-84
2021/12/05 16:33:34;;;;;;;;;10.50;8.50;;;;;;;;4999453;28;61863;-83
2021/12/05 16:36:00;;;;;;;;;17.50;13.75;;;;;;;;4994919;28;61895;-79
2021/12/05 16:38:31;;;;;;;;;36.00;30.25;;;;;;;;4986831;28;61815;-82
2021/12/05 16:40:56;;;;;;;;;56.00;38.50;;;;;;;;4966373;28;62074;-76
2021/12/05 16:43:22;;;;;;;;;21.25;20.00;;;;;;;;4991814;28;62970;-77
2021/12/05 16:45:47;;;;;;;;;80.75;58.25;;;;;;;;5002941;28;61873;-76
2021/12/05 16:48:16;;;;;;;;;24.25;20.50;;;;;;;;5002260;28;61859;-77
2021/12/05 16:50:41;;;;;;;;;24.00;20.00;;;;;;;;5006252;28;61683;-76
2021/12/05 16:53:07;;;;;;;;;81.33;63.33;;;;;;;;5008349;28;61796;-77
2021/12/05 16:55:33;;;;;;;;;16.50;16.00;;;;;;;;4985467;28;62139;-76
2021/12/05 16:58:13;;;;;;;;;66.00;47.50;;;;;;;;4995766;28;61786;-76
2021/12/05 17:00:39;;;;;;;;;16.75;14.00;;;;;;;;4990062;28;62254;-76
2021/12/05 17:03:07;;;;;;;;;19.75;16.75;;;;;;;;4973469;28;63979;-77
2021/12/05 17:05:36;;;;;;;;;17.25;15.25;;;;;;;;4975960;28;62110;-83
2021/12/05 17:08:12;;;;;;;;;29.50;24.75;;;;;;;;4975116;28;62001;-83
2021/12/05 17:10:45;;;;;;;;;35.25;28.75;;;;;;;;4993522;28;61941;-83
2021/12/05 17:13:11;;;;;;;;;17.75;12.50;;;;;;;;4991970;28;62770;-81
2021/12/05 17:15:42;;;;;;;;;18.00;15.25;;;;;;;;4971000;28;62121;-80
2021/12/05 17:18:13;;;;;;;;;21.25;18.25;;;;;;;;4971153;28;62046;-81
2021/12/05 17:20:45;;;;;;;;;32.75;26.00;;;;;;;;4991141;28;61842;-81
2021/12/05 17:23:14;;;;;;;;;26.75;18.50;;;;;;;;4976659;28;63893;-79
2021/12/05 17:25:44;;;;;;;;;29.25;20.00;;;;;;;;4974871;28;61972;-81
2021/12/05 17:28:19;;;;;;;;;18.50;16.75;;;;;;;;4975244;28;62023;-83
2021/12/05 17:30:55;;;;;;;;;40.75;33.75;;;;;;;;4992822;28;61813;-84
2021/12/05 17:33:28;;;;;;;;;31.50;27.75;;;;;;;;4990663;28;62933;-83
2021/12/05 17:35:54;;;;;;;;;30.75;23.25;;;;;;;;4991351;28;61924;-82
2021/12/05 17:38:29;;;;;;;;;41.25;34.00;;;;;;;;4970685;28;62055;-83
2021/12/05 17:40:55;;;;;;;;;23.25;17.75;;;;;;;;4987825;28;61861;-83
2021/12/05 17:43:20;;;;;;;;;17.50;14.75;;;;;;;;4969389;28;65222;-82
2021/12/05 17:45:45;;;;;;;;;13.25;13.25;;;;;;;;4974445;28;61868;-82
2021/12/05 17:48:10;;;;;;;;;22.25;17.75;;;;;;;;4996060;28;61842;-82
2021/12/05 17:50:38;;;;;;;;;14.75;11.25;;;;;;;;4978627;28;61781;-82
2021/12/05 17:53:04;;;;;;;;;16.50;13.00;;;;;;;;4971910;28;64831;-83
2021/12/05 17:55:32;;;;;;;;;34.00;31.50;;;;;;;;4988317;28;61808;-83
2021/12/05 17:58:18;;;;;;;;;18.75;15.00;;;;;;;;4975174;28;62001;-81
2021/12/05 18:00:58;;;;;;;;;20.75;18.25;;;;;;;;4995361;28;62016;-82
2021/12/05 18:03:23;;;;;;;;;20.25;14.00;;;;;;;;4970483;28;63841;-83
2021/12/05 18:05:49;;;;;;;;;14.25;11.50;;;;;;;;4986951;28;61968;-83
2021/12/05 18:08:18;;;;;;;;;21.00;18.25;;;;;;;;4970053;28;61773;-83
2021/12/05 18:10:48;;;;;;;;;18.00;12.75;;;;;;;;4992928;28;61702;-83
2021/12/05 18:13:14;;;;;;;;;14.00;12.75;;;;;;;;4994357;28;63143;-82
2021/12/05 18:15:46;;;;;;;;;19.25;15.50;;;;;;;;4991232;28;61764;-82
2021/12/05 18:18:13;;;;;;;;;12.25;11.25;;;;;;;;4992482;28;61801;-82
2021/12/05 18:20:38;;;;;;;;;18.75;17.00;;;;;;;;4990320;28;62116;-82
2021/12/05 18:23:04;;;;;;;;;24.50;19.25;;;;;;;;4985042;28;63278;-82
2021/12/05 18:25:30;;;;;;;;;16.25;13.00;;;;;;;;4984717;28;61874;-83
2021/12/05 18:27:57;;;;;;;;;13.50;12.75;;;;;;;;4998327;28;61788;-83
2021/12/05 18:30:23;;;;;;;;;14.00;13.50;;;;;;;;4985431;28;61699;-83
2021/12/05 18:32:49;;;;;;;;;28.25;24.00;;;;;;;;4981781;28;61777;-84
2021/12/05 18:35:15;;;;;;;;;32.25;30.75;;;;;;;;4993419;28;62371;-84
2021/12/05 18:37:42;;;;;;;;;32.50;27.50;;;;;;;;4982228;28;61804;-84
2021/12/05 18:40:08;;;;;;;;;17.25;17.25;;;;;;;;4982912;28;61859;-84
2021/12/05 18:42:34;;;;;;;;;25.75;23.50;;;;;;;;4974530;28;63929;-82
2021/12/05 18:45:02;;;;;;;;;20.25;15.50;;;;;;;;4983693;28;61945;-82
2021/12/05 18:47:27;;;;;;;;;21.25;16.50;;;;;;;;4970459;28;62016;-83
2021/12/05 18:49:54;;;;;;;;;27.25;21.25;;;;;;;;4994321;28;61649;-78
2021/12/05 18:52:19;;;;;;;;;30.50;23.00;;;;;;;;4973970;28;63752;-77
2021/12/05 18:54:46;;;;;;;;;29.75;23.50;;;;;;;;4974915;28;61997;-77
2021/12/05 18:57:14;;;;;;;;;26.75;20.50;;;;;;;;4975141;28;61856;-76
2021/12/05 18:59:47;;;;;;;;;23.00;21.75;;;;;;;;4990550;28;61839;-77
2021/12/05 19:05:00;;;;;;;;;24.50;22.00;;;;;;;;4993980;28;61810;-85
2021/12/05 19:07:31;;;;;;;;;24.75;16.00;;;;;;;;4983979;28;61828;-84
2021/12/05 19:12:31;;;;;;;;;23.75;20.50;;;;;;;;5001269;28;62625;-85
2021/12/05 19:14:59;;;;;;;;;27.75;20.75;;;;;;;;4983904;28;61970;-83
2021/12/05 19:17:26;;;;;;;;;21.25;18.75;;;;;;;;4978942;28;61979;-85
2021/12/05 19:19:53;;;;;;;;;23.50;21.25;;;;;;;;4974659;28;61785;-81
2021/12/05 19:22:19;;;;;;;;;18.00;14.75;;;;;;;;4992155;28;63267;-83
2021/12/05 19:24:46;;;;;;;;;22.75;17.50;;;;;;;;4994639;28;62304;-83
2021/12/05 19:27:15;;;;;;;;;21.75;19.50;;;;;;;;4993831;28;61976;-79
2021/12/05 19:29:41;;;;;;;;;17.00;16.50;;;;;;;;4992495;28;62094;-76
2021/12/05 19:32:06;;;;;;;;;21.75;20.25;;;;;;;;4993880;28;61828;-81
2021/12/05 19:34:32;;;;;;;;;18.50;16.00;;;;;;;;4985436;28;61866;-84
2021/12/05 19:36:58;;;;;;;;;23.00;19.00;;;;;;;;5004315;28;61707;-85
2021/12/05 19:39:24;;;;;;;;;24.50;20.25;;;;;;;;5005887;28;61665;-84
2021/12/05 19:41:50;;;;;;;;;26.25;19.00;;;;;;;;4985592;28;64077;-84
2021/12/05 19:44:17;;;;;;;;;28.50;24.00;;;;;;;;5004096;28;61888;-83
2021/12/05 19:46:42;;;;;;;;;21.00;19.00;;;;;;;;4970408;28;62017;-81
2021/12/05 19:49:08;;;;;;;;;19.50;13.75;;;;;;;;4967807;28;62343;-83
2021/12/05 19:51:35;;;;;;;;;18.25;16.00;;;;;;;;4987791;28;61987;-83
2021/12/05 19:54:01;;;;;;;;;21.25;16.75;;;;;;;;4974425;28;62179;-83
2021/12/05 19:56:29;;;;;;;;;24.00;22.75;;;;;;;;5004636;28;61987;-83
2021/12/05 19:58:54;;;;;;;;;20.75;16.50;;;;;;;;5004489;28;61816;-83
2021/12/05 20:01:20;;;;;;;;;18.00;16.25;;;;;;;;5003276;28;61951;-82
2021/12/05 20:03:45;;;;;;;;;16.25;10.50;;;;;;;;4986553;28;62242;-82
2021/12/05 20:06:11;;;;;;;;;20.50;17.50;;;;;;;;5004296;28;61815;-81
2021/12/05 20:08:37;;;;;;;;;18.50;14.00;;;;;;;;5004624;28;61963;-82
2021/12/05 20:11:03;;;;;;;;;10.00;10.00;;;;;;;;5003840;28;62921;-84
2021/12/05 20:13:29;;;;;;;;;13.25;12.75;;;;;;;;5004451;28;62012;-86
2021/12/05 20:15:55;;;;;;;;;14.75;14.75;;;;;;;;4979838;28;61770;-86
2021/12/05 20:18:21;;;;;;;;;11.25;9.75;;;;;;;;4987478;28;61734;-86
2021/12/05 20:20:48;;;;;;;;;20.00;13.75;;;;;;;;4984342;28;62000;-82
2021/12/05 20:23:15;;;;;;;;;12.25;12.25;;;;;;;;4984617;28;61967;-81
2021/12/05 20:25:40;;;;;;;;;11.00;10.50;;;;;;;;4984559;28;62329;-82
2021/12/05 20:28:05;;;;;;;;;17.75;11.50;;;;;;;;4966927;28;61933;-79
2021/12/05 20:30:32;;;;;;;;;14.25;10.75;;;;;;;;4978684;28;63618;-78
2021/12/05 20:32:58;;;;;;;;;7.00;6.00;;;;;;;;4976031;28;61820;-77
2021/12/05 20:35:24;;;;;;;;;10.00;10.00;;;;;;;;4966983;28;61904;-78
2021/12/05 20:37:56;;;;;;;;;19.75;14.25;;;;;;;;4973520;28;62086;-87
2021/12/05 20:40:22;;;;;;;;;16.50;12.25;;;;;;;;4989557;28;62192;-85
2021/12/05 20:42:50;;;;;;;;;16.25;11.00;;;;;;;;4976438;28;61883;-84
2021/12/05 20:45:20;;;;;;;;;14.75;13.50;;;;;;;;4980497;28;61974;-83
2021/12/05 20:47:45;;;;;;;;;12.00;10.75;;;;;;;;4996974;28;61835;-85
2021/12/05 20:50:12;;;;;;;;;18.75;14.00;;;;;;;;4971651;28;63614;-86
2021/12/05 20:52:37;;;;;;;;;13.75;12.50;;;;;;;;4991441;28;61807;-83
2021/12/05 20:55:04;;;;;;;;;15.75;11.00;;;;;;;;4974658;28;61831;-82
2021/12/05 20:57:29;;;;;;;;;14.25;11.00;;;;;;;;4988136;28;62132;-84
2021/12/05 20:59:54;;;;;;;;;8.75;6.00;;;;;;;;4987191;28;62877;-85
2021/12/05 21:02:20;;;;;;;;;19.75;14.00;;;;;;;;4986217;28;62016;-82
2021/12/05 21:04:45;;;;;;;;;15.00;11.00;;;;;;;;4982931;28;61859;-84